Time;durP1;ratioP1;P1;durP2;ratioP2;P2;SDS_P1;SDS_P2;PMS_P1;PMS_P2;Temp;Humidity;BMP_temperature;BMP_pressure;BME280_temperature;BME280_humidity;BME280_pressure;Samples;Min_cycle;Max_cycle;Signal;HPM_P1;HPM_P2
2022/12/02 00:00:20;;;;;;;37.13;23.37;;;2.80;99.90;;;;;;5037003;28;20813;-66
2022/12/02 00:02:47;;;;;;;41.50;23.40;;;2.80;99.90;;;;;;5036401;28;20550;-66
2022/12/02 00:05:31;;;;;;;38.07;22.70;;;2.80;99.90;;;;;;5036621;28;20471;-66
2022/12/02 00:08:11;;;;;;;41.13;22.90;;;2.80;99.90;;;;;;5040470;28;20463;-66
2022/12/02 00:10:38;;;;;;;39.13;23.17;;;2.80;99.90;;;;;;5039782;28;20459;-66
2022/12/02 00:13:18;;;;;;;38.03;22.57;;;2.70;99.90;;;;;;5040144;28;20444;-66
2022/12/02 00:15:47;;;;;;;40.57;21.87;;;2.80;99.90;;;;;;5040371;28;20490;-66
2022/12/02 00:18:16;;;;;;;35.70;22.33;;;2.80;99.90;;;;;;5040508;28;20422;-66
2022/12/02 00:20:44;;;;;;;45.87;25.10;;;2.70;99.90;;;;;;5039849;28;20466;-66
2022/12/02 00:23:11;;;;;;;40.80;24.53;;;2.70;99.90;;;;;;5048563;28;20486;-66
2022/12/02 00:25:39;;;;;;;35.70;22.57;;;2.70;99.90;;;;;;5058413;28;20437;-66
2022/12/02 00:28:07;;;;;;;39.80;23.27;;;2.70;99.90;;;;;;5059600;28;20473;-66
2022/12/02 00:30:34;;;;;;;44.00;23.40;;;2.70;99.90;;;;;;5059974;28;20441;-67
2022/12/02 00:33:01;;;;;;;42.50;23.90;;;2.70;99.90;;;;;;5060160;28;20466;-66
2022/12/02 00:35:31;;;;;;;36.00;23.93;;;2.70;99.90;;;;;;5059919;28;20943;-66
2022/12/02 00:37:58;;;;;;;41.70;23.33;;;2.70;99.90;;;;;;5059900;28;20458;-66
2022/12/02 00:40:25;;;;;;;46.00;25.17;;;2.70;99.90;;;;;;5060151;28;20759;-66
2022/12/02 00:42:52;;;;;;;44.50;25.63;;;2.70;99.90;;;;;;5059630;28;20745;-66
2022/12/02 00:48:16;;;;;;;39.77;22.57;;;2.70;99.90;;;;;;4997760;28;20441;-66
2022/12/02 00:50:43;;;;;;;42.67;21.33;;;2.70;99.90;;;;;;4996684;28;20461;-66
2022/12/02 00:53:10;;;;;;;38.50;23.50;;;2.70;99.90;;;;;;4996649;28;20810;-66
2022/12/02 00:55:38;;;;;;;40.57;23.57;;;2.70;99.90;;;;;;4997969;28;20485;-66
2022/12/02 00:58:05;;;;;;;40.10;21.53;;;2.70;99.90;;;;;;4997846;28;20888;-67
2022/12/02 01:00:33;;;;;;;41.40;23.60;;;2.60;99.90;;;;;;4997691;28;20436;-67
2022/12/02 01:03:00;;;;;;;32.90;21.13;;;2.60;99.90;;;;;;4997768;28;20469;-66
2022/12/02 01:05:27;;;;;;;39.83;21.27;;;2.60;99.90;;;;;;4997642;28;20899;-66
2022/12/02 01:07:54;;;;;;;39.47;22.50;;;2.60;99.90;;;;;;4997695;28;20465;-66
2022/12/02 01:10:22;;;;;;;43.20;22.80;;;2.60;99.90;;;;;;4997614;28;20446;-66
2022/12/02 01:12:49;;;;;;;39.47;22.70;;;2.60;99.90;;;;;;4997247;28;20460;-67
2022/12/02 01:15:16;;;;;;;41.47;23.33;;;2.60;99.90;;;;;;4997316;28;20484;-66
2022/12/02 01:17:45;;;;;;;43.10;22.50;;;2.60;99.90;;;;;;4997014;28;20946;-66
2022/12/02 01:20:13;;;;;;;38.40;22.00;;;2.60;99.90;;;;;;4997600;28;20465;-66
2022/12/02 01:22:40;;;;;;;44.17;24.37;;;2.60;99.90;;;;;;5033957;28;20763;-66
2022/12/02 01:25:08;;;;;;;41.33;25.00;;;2.60;99.90;;;;;;5058723;28;20462;-66
2022/12/02 01:27:35;;;;;;;39.50;21.87;;;2.60;99.90;;;;;;5058881;28;20524;-66
2022/12/02 01:30:02;;;;;;;41.90;21.50;;;2.60;99.90;;;;;;5059085;28;20437;-66
2022/12/02 01:32:29;;;;;;;39.47;20.30;;;2.70;99.90;;;;;;5058946;28;20463;-66
2022/12/02 01:34:58;;;;;;;39.33;21.23;;;2.60;99.90;;;;;;5058558;28;20560;-67
2022/12/02 01:37:25;;;;;;;42.97;23.33;;;2.60;99.90;;;;;;5058772;28;20490;-66
2022/12/02 01:39:52;;;;;;;36.87;20.70;;;2.70;99.90;;;;;;5058773;28;20724;-67
2022/12/02 01:42:19;;;;;;;41.20;22.60;;;2.70;99.90;;;;;;5058934;28;20462;-67
2022/12/02 01:44:46;;;;;;;37.80;21.47;;;2.70;99.90;;;;;;5058830;28;20466;-67
2022/12/02 01:47:15;;;;;;;41.77;22.03;;;2.70;99.90;;;;;;5058275;28;20432;-66
2022/12/02 01:49:42;;;;;;;40.53;23.63;;;2.70;99.90;;;;;;5058572;28;20462;-66
2022/12/02 01:52:11;;;;;;;40.23;23.23;;;2.70;99.90;;;;;;5058648;28;20436;-67
2022/12/02 01:54:38;;;;;;;38.20;21.73;;;2.70;99.90;;;;;;5058614;28;20454;-67
2022/12/02 01:57:10;;;;;;;40.13;22.70;;;2.70;99.90;;;;;;5058473;28;20507;-67
2022/12/02 01:59:38;;;;;;;41.97;22.77;;;2.70;99.90;;;;;;5058584;28;20480;-67
2022/12/02 02:02:24;;;;;;;42.43;24.07;;;2.80;99.90;;;;;;5058434;28;20472;-67
2022/12/02 02:04:52;;;;;;;44.03;24.07;;;2.70;99.90;;;;;;5058461;28;20462;-66
2022/12/02 02:07:21;;;;;;;44.77;22.37;;;2.70;99.90;;;;;;5058122;28;20905;-66
2022/12/02 02:09:48;;;;;;;40.80;23.80;;;2.70;99.90;;;;;;5058238;28;20796;-67
2022/12/02 02:12:15;;;;;;;47.70;25.23;;;2.70;99.90;;;;;;5057419;28;20463;-67
2022/12/02 02:14:42;;;;;;;43.77;25.70;;;2.70;99.90;;;;;;5058286;28;20428;-67
2022/12/02 02:17:10;;;;;;;44.60;24.07;;;2.80;99.90;;;;;;5057681;28;20549;-67
2022/12/02 02:19:37;;;;;;;41.50;22.77;;;2.70;99.90;;;;;;5057991;28;20441;-67
2022/12/02 02:22:11;;;;;;;44.03;24.47;;;2.70;99.90;;;;;;5057776;28;20441;-67
2022/12/02 02:24:39;;;;;;;43.07;24.17;;;2.60;99.90;;;;;;5058349;28;20496;-66
2022/12/02 02:27:07;;;;;;;40.90;25.00;;;2.60;99.90;;;;;;5057745;28;20437;-67
2022/12/02 02:29:34;;;;;;;46.30;23.87;;;2.70;99.90;;;;;;5057014;28;20466;-67
2022/12/02 02:32:01;;;;;;;46.20;26.77;;;2.60;99.90;;;;;;5057899;28;20441;-67
2022/12/02 02:34:28;;;;;;;45.10;26.37;;;2.50;99.90;;;;;;5057878;28;20469;-67
2022/12/02 02:36:56;;;;;;;47.77;26.83;;;2.60;99.90;;;;;;5057559;28;20503;-67
2022/12/02 02:39:24;;;;;;;50.10;25.40;;;2.60;99.90;;;;;;5057525;28;20469;-67
2022/12/02 02:41:54;;;;;;;44.70;23.97;;;2.60;99.90;;;;;;5057524;28;20765;-67
2022/12/02 02:44:21;;;;;;;47.33;25.23;;;2.60;99.90;;;;;;5057789;28;20433;-66
2022/12/02 02:46:48;;;;;;;49.03;23.57;;;2.60;99.90;;;;;;5057261;28;20459;-67
2022/12/02 02:49:16;;;;;;;45.07;23.63;;;2.60;99.90;;;;;;5057107;28;20454;-67
2022/12/02 02:51:43;;;;;;;48.07;23.93;;;2.60;99.90;;;;;;5057603;28;20788;-67
2022/12/02 02:54:10;;;;;;;49.60;24.13;;;2.50;99.90;;;;;;5057677;28;20469;-67
2022/12/02 02:56:37;;;;;;;43.20;23.70;;;2.60;99.90;;;;;;5057491;28;20547;-66
2022/12/02 02:59:06;;;;;;;41.47;22.87;;;2.60;99.90;;;;;;5057242;28;20462;-67
2022/12/02 03:01:36;;;;;;;46.07;22.43;;;2.60;99.90;;;;;;5057432;28;20485;-67
2022/12/02 03:04:08;;;;;;;46.03;24.97;;;2.60;99.90;;;;;;5057661;28;20907;-67
2022/12/02 03:06:37;;;;;;;47.37;24.73;;;2.60;99.90;;;;;;5057453;28;20944;-67
2022/12/02 03:09:06;;;;;;;45.73;23.50;;;2.70;99.90;;;;;;5057200;28;20468;-67
2022/12/02 03:11:35;;;;;;;41.67;22.80;;;2.60;99.90;;;;;;5056791;28;20437;-67
2022/12/02 03:14:03;;;;;;;41.87;22.87;;;2.70;99.90;;;;;;5057128;28;20458;-67
2022/12/02 03:16:32;;;;;;;44.57;22.33;;;2.70;99.90;;;;;;5057457;28;20494;-67
2022/12/02 03:19:00;;;;;;;45.60;23.33;;;2.60;99.90;;;;;;5057175;28;20462;-67
2022/12/02 03:21:27;;;;;;;44.87;21.77;;;2.60;99.90;;;;;;5057178;28;20443;-67
2022/12/02 03:23:58;;;;;;;46.70;23.90;;;2.50;99.90;;;;;;5057239;28;20482;-67
2022/12/02 03:26:27;;;;;;;51.73;23.53;;;2.60;99.90;;;;;;5057439;28;20760;-67
2022/12/02 03:28:56;;;;;;;43.50;24.57;;;2.60;99.90;;;;;;5056906;28;20468;-67
2022/12/02 03:31:24;;;;;;;43.13;22.10;;;2.70;99.90;;;;;;5057051;28;20437;-67
2022/12/02 03:33:53;;;;;;;45.60;23.47;;;2.70;99.90;;;;;;5056926;28;20500;-66
2022/12/02 03:36:20;;;;;;;51.20;23.00;;;2.70;99.90;;;;;;5056454;28;20479;-67
2022/12/02 03:38:48;;;;;;;44.27;22.47;;;2.70;99.90;;;;;;5056786;28;20916;-67
2022/12/02 03:41:15;;;;;;;46.83;22.90;;;2.70;99.90;;;;;;5060388;28;20903;-67
2022/12/02 03:43:43;;;;;;;41.30;22.27;;;2.70;99.90;;;;;;5061326;28;20465;-67
2022/12/02 03:46:10;;;;;;;44.00;22.83;;;2.70;99.90;;;;;;5061132;28;20466;-67
2022/12/02 03:48:38;;;;;;;44.83;22.67;;;2.70;99.90;;;;;;5061347;28;20462;-66
2022/12/02 03:51:08;;;;;;;50.13;23.17;;;2.70;99.90;;;;;;5061170;28;20458;-67
2022/12/02 03:53:36;;;;;;;41.70;21.90;;;2.70;99.90;;;;;;5060695;28;20437;-67
2022/12/02 03:56:04;;;;;;;38.90;22.60;;;2.70;99.90;;;;;;5061075;28;20462;-67
2022/12/02 03:58:36;;;;;;;41.70;24.20;;;2.60;99.90;;;;;;5060727;28;20471;-66
2022/12/02 04:01:04;;;;;;;46.03;22.57;;;2.70;99.90;;;;;;5060485;28;20441;-67
2022/12/02 04:03:31;;;;;;;49.77;24.23;;;2.70;99.90;;;;;;5060983;28;20466;-67
2022/12/02 04:05:58;;;;;;;52.90;26.73;;;2.70;99.90;;;;;;5060786;28;20457;-67
2022/12/02 04:08:27;;;;;;;55.30;24.37;;;2.70;99.90;;;;;;5060324;28;20463;-67
2022/12/02 04:10:54;;;;;;;42.63;24.07;;;2.70;99.90;;;;;;5060115;28;20879;-67
2022/12/02 04:13:21;;;;;;;44.73;22.30;;;2.70;99.90;;;;;;5060165;28;20464;-67
2022/12/02 04:15:48;;;;;;;45.30;23.20;;;2.70;99.90;;;;;;5060539;28;20756;-67
2022/12/02 04:18:15;;;;;;;40.40;22.90;;;2.70;99.90;;;;;;5060515;28;20486;-67
2022/12/02 04:20:43;;;;;;;46.60;22.37;;;2.60;99.90;;;;;;5059780;28;20470;-67
2022/12/02 04:23:10;;;;;;;49.07;23.70;;;2.60;99.90;;;;;;5060053;28;20493;-67
2022/12/02 04:25:38;;;;;;;47.87;23.70;;;2.60;99.90;;;;;;5060399;28;20884;-67
2022/12/02 04:28:05;;;;;;;50.83;24.43;;;2.60;99.90;;;;;;5060238;28;20458;-67
2022/12/02 04:30:32;;;;;;;48.13;22.90;;;2.60;99.90;;;;;;5060274;28;20944;-66
2022/12/02 04:32:59;;;;;;;52.93;27.60;;;2.60;99.90;;;;;;5059900;28;20904;-67
2022/12/02 04:35:27;;;;;;;51.60;25.33;;;2.60;99.90;;;;;;5060372;28;20436;-67
2022/12/02 04:37:54;;;;;;;49.10;24.20;;;2.60;99.90;;;;;;5059531;28;20502;-67
2022/12/02 04:40:22;;;;;;;55.40;27.37;;;2.60;99.90;;;;;;5060023;28;20615;-67
2022/12/02 04:42:51;;;;;;;53.60;28.50;;;2.60;99.90;;;;;;5059723;28;20880;-67
2022/12/02 04:45:18;;;;;;;48.20;26.20;;;2.70;99.90;;;;;;5059789;28;20437;-67
2022/12/02 04:47:46;;;;;;;62.67;27.80;;;2.60;99.90;;;;;;5059810;28;20858;-67
2022/12/02 04:50:13;;;;;;;53.07;26.70;;;2.60;99.90;;;;;;5059858;28;20769;-66
2022/12/02 04:52:40;;;;;;;57.53;27.53;;;2.70;99.90;;;;;;5058927;28;20452;-67
2022/12/02 04:55:08;;;;;;;52.73;27.80;;;2.60;99.90;;;;;;5059529;28;20462;-67
2022/12/02 04:57:35;;;;;;;54.70;27.37;;;2.60;99.90;;;;;;5059657;28;20491;-67
2022/12/02 05:00:06;;;;;;;54.00;27.10;;;2.60;99.90;;;;;;5059554;28;20469;-67
2022/12/02 05:02:33;;;;;;;51.77;25.80;;;2.60;99.90;;;;;;5059686;28;20441;-67
2022/12/02 05:05:01;;;;;;;67.27;28.67;;;2.60;99.90;;;;;;5059393;28;20468;-67
2022/12/02 05:07:28;;;;;;;66.27;28.87;;;2.60;99.90;;;;;;5059032;28;20462;-66
2022/12/02 05:09:55;;;;;;;58.80;27.97;;;2.50;99.90;;;;;;5059369;28;20462;-66
2022/12/02 05:12:23;;;;;;;59.03;28.80;;;2.50;99.90;;;;;;5059493;28;20528;-67
2022/12/02 05:14:50;;;;;;;55.57;25.33;;;2.50;99.90;;;;;;5059325;28;20473;-68
2022/12/02 05:17:19;;;;;;;55.60;26.73;;;2.40;99.90;;;;;;5059602;28;20482;-67
2022/12/02 05:19:46;;;;;;;63.37;26.90;;;2.40;99.90;;;;;;5059345;28;20462;-67
2022/12/02 05:22:14;;;;;;;56.60;28.00;;;2.40;99.90;;;;;;5059315;28;20437;-67
2022/12/02 05:24:41;;;;;;;65.60;27.87;;;2.50;99.90;;;;;;5059193;28;20437;-67
2022/12/02 05:27:09;;;;;;;65.47;28.50;;;2.50;99.90;;;;;;5058100;28;20535;-67
2022/12/02 05:29:36;;;;;;;62.90;27.30;;;2.50;99.90;;;;;;5058961;28;20463;-67
2022/12/02 05:32:03;;;;;;;61.13;28.03;;;2.50;99.90;;;;;;5059111;28;20437;-67
2022/12/02 05:34:31;;;;;;;61.63;28.30;;;2.50;99.90;;;;;;5059152;28;20469;-67
2022/12/02 05:36:58;;;;;;;59.60;28.27;;;2.50;99.90;;;;;;5058610;28;20460;-67
2022/12/02 05:39:26;;;;;;;63.77;27.40;;;2.50;99.90;;;;;;5059025;28;20461;-67
2022/12/02 05:41:55;;;;;;;65.33;27.27;;;2.50;99.90;;;;;;5058768;28;20462;-67
2022/12/02 05:44:25;;;;;;;67.77;29.67;;;2.50;99.90;;;;;;5058835;28;20773;-67
2022/12/02 05:46:52;;;;;;;65.60;27.67;;;2.50;99.90;;;;;;5059143;28;20761;-67
2022/12/02 05:49:21;;;;;;;59.20;27.20;;;2.50;99.90;;;;;;5058549;28;20458;-67
2022/12/02 05:51:55;;;;;;;66.23;28.70;;;2.60;99.90;;;;;;5058573;28;20438;-67
2022/12/02 05:54:23;;;;;;;62.93;28.13;;;2.50;99.90;;;;;;5057481;28;20441;-67
2022/12/02 05:56:50;;;;;;;71.17;31.97;;;2.60;99.90;;;;;;5057673;28;20462;-67
2022/12/02 05:59:19;;;;;;;78.20;32.80;;;2.60;99.90;;;;;;5058074;28;20504;-67
2022/12/02 06:01:48;;;;;;;75.97;31.53;;;2.50;99.90;;;;;;5058313;28;20492;-67
2022/12/02 06:04:18;;;;;;;69.33;31.10;;;2.50;99.90;;;;;;5058789;28;20945;-67
2022/12/02 06:06:46;;;;;;;81.73;32.17;;;2.50;99.90;;;;;;5058384;28;20502;-67
2022/12/02 06:09:17;;;;;;;79.47;30.60;;;2.60;99.90;;;;;;5058656;28;20432;-67
2022/12/02 06:11:44;;;;;;;80.00;31.23;;;2.50;99.90;;;;;;5058197;28;20521;-67
2022/12/02 06:14:16;;;;;;;77.77;30.90;;;2.50;99.90;;;;;;5058184;28;20454;-67
2022/12/02 06:16:48;;;;;;;82.17;37.43;;;2.50;99.90;;;;;;5057225;28;20458;-67
2022/12/02 06:19:23;;;;;;;69.60;29.90;;;2.50;99.90;;;;;;5056708;28;20462;-67
2022/12/02 06:21:51;;;;;;;76.30;32.37;;;2.50;99.90;;;;;;5055737;28;20461;-67
2022/12/02 06:24:25;;;;;;;74.40;30.33;;;2.40;99.90;;;;;;5056200;28;20463;-67
2022/12/02 06:26:54;;;;;;;80.07;29.03;;;2.40;99.90;;;;;;5056171;28;20462;-67
2022/12/02 06:29:22;;;;;;;78.10;34.10;;;2.40;99.90;;;;;;5056274;28;20437;-67
2022/12/02 06:31:49;;;;;;;94.60;32.20;;;2.40;99.90;;;;;;5056864;28;20486;-67
2022/12/02 06:34:35;;;;;;;69.20;32.00;;;2.30;99.90;;;;;;5058346;28;20462;-67
2022/12/02 06:37:12;;;;;;;83.67;32.13;;;2.40;99.90;;;;;;5057445;28;20473;-67
2022/12/02 06:39:41;;;;;;;67.07;28.90;;;2.40;99.90;;;;;;5057275;28;20474;-67
2022/12/02 06:42:19;;;;;;;85.33;31.53;;;2.50;99.90;;;;;;5057346;28;20914;-67
2022/12/02 06:45:04;;;;;;;68.93;29.03;;;2.50;99.90;;;;;;5057422;28;20735;-67
2022/12/02 06:48:00;;;;;;;73.50;31.40;;;2.50;99.90;;;;;;5058082;28;20860;-67
2022/12/02 06:50:37;;;;;;;78.90;29.90;;;2.40;99.90;;;;;;5045973;28;20490;-67
2022/12/02 06:53:34;;;;;;;78.90;32.77;;;2.30;99.90;;;;;;5057020;28;20891;-67
2022/12/02 06:56:06;;;;;;;77.10;30.73;;;2.40;99.90;;;;;;5036701;28;20653;-68
2022/12/02 06:58:37;;;;;;;65.87;29.17;;;2.40;99.90;;;;;;5056972;28;20490;-67
2022/12/02 07:01:32;;;;;;;73.20;29.77;;;2.30;99.90;;;;;;5057030;28;20876;-67
2022/12/02 07:04:28;;;;;;;65.70;30.07;;;2.40;99.90;;;;;;5055003;28;20467;-67
2022/12/02 07:06:59;;;;;;;58.33;27.60;;;2.40;99.90;;;;;;5057132;28;20544;-67
2022/12/02 07:09:36;;;;;;;77.00;30.13;;;2.40;99.90;;;;;;5057161;28;20491;-67
2022/12/02 07:12:10;;;;;;;68.03;29.93;;;2.40;99.90;;;;;;5057706;28;20759;-67
2022/12/02 07:14:47;;;;;;;71.07;29.30;;;2.30;99.90;;;;;;5056963;28;20464;-67
2022/12/02 07:17:21;;;;;;;63.30;30.40;;;2.30;99.90;;;;;;5056934;28;20465;-67
2022/12/02 07:19:50;;;;;;;60.73;29.53;;;2.40;99.90;;;;;;5057359;28;20516;-67
2022/12/02 07:22:20;;;;;;;67.30;29.70;;;2.40;99.90;;;;;;5054212;28;20465;-68
2022/12/02 07:24:55;;;;;;;72.53;29.67;;;2.40;99.90;;;;;;5055574;28;20533;-67
2022/12/02 07:27:27;;;;;;;63.30;30.07;;;2.40;99.90;;;;;;5056883;28;20756;-67
2022/12/02 07:29:56;;;;;;;59.23;27.57;;;2.40;99.90;;;;;;5053987;28;20458;-67
2022/12/02 07:32:23;;;;;;;57.20;27.97;;;2.40;99.90;;;;;;5057088;28;20736;-67
2022/12/02 07:34:50;;;;;;;62.03;26.83;;;2.50;99.90;;;;;;5056180;28;20741;-67
2022/12/02 07:37:17;;;;;;;61.70;27.90;;;2.40;99.90;;;;;;5056684;28;20886;-67
2022/12/02 07:39:44;;;;;;;62.97;30.20;;;2.40;99.90;;;;;;5056976;28;20437;-68
2022/12/02 07:42:13;;;;;;;60.70;27.67;;;2.40;99.90;;;;;;5056433;28;20444;-67
2022/12/02 07:44:43;;;;;;;68.60;28.07;;;2.40;99.90;;;;;;5057171;28;20541;-67
2022/12/02 07:47:10;;;;;;;56.63;28.10;;;2.40;99.90;;;;;;5056972;28;20750;-67
2022/12/02 07:49:37;;;;;;;54.03;27.50;;;2.40;99.90;;;;;;5057064;28;20459;-67
2022/12/02 07:52:04;;;;;;;66.90;28.67;;;2.50;99.90;;;;;;5057068;28;20440;-67
2022/12/02 07:54:32;;;;;;;53.50;27.10;;;2.60;99.90;;;;;;5056934;28;20471;-67
2022/12/02 07:56:59;;;;;;;63.37;27.47;;;2.60;99.90;;;;;;5056898;28;20462;-67
2022/12/02 07:59:26;;;;;;;58.23;26.73;;;2.50;99.90;;;;;;5056605;28;20479;-67
2022/12/02 08:01:55;;;;;;;55.27;27.53;;;2.50;99.90;;;;;;5056824;28;20436;-67
2022/12/02 08:04:22;;;;;;;56.80;29.70;;;2.50;99.90;;;;;;5057006;28;20462;-67
2022/12/02 08:06:49;;;;;;;54.37;27.43;;;2.60;99.90;;;;;;5056199;28;20465;-67
2022/12/02 08:09:16;;;;;;;52.67;26.77;;;2.60;99.90;;;;;;5056932;28;20462;-67
2022/12/02 08:11:44;;;;;;;58.10;27.57;;;2.60;99.90;;;;;;5054875;28;20954;-67
2022/12/02 08:14:11;;;;;;;62.97;29.33;;;2.50;99.90;;;;;;5055143;28;20473;-66
2022/12/02 08:16:38;;;;;;;51.63;26.23;;;2.50;99.90;;;;;;5056834;28;20454;-65
2022/12/02 08:19:07;;;;;;;63.80;28.07;;;2.50;99.90;;;;;;5055636;28;20805;-65
2022/12/02 08:21:34;;;;;;;55.20;25.77;;;2.50;99.90;;;;;;5054919;28;20472;-65
2022/12/02 08:24:02;;;;;;;59.60;26.80;;;2.60;99.90;;;;;;5054855;28;20478;-65
2022/12/02 08:26:29;;;;;;;48.33;27.00;;;2.60;99.90;;;;;;5054875;28;20440;-65
2022/12/02 08:28:56;;;;;;;50.63;25.90;;;2.60;99.90;;;;;;5057400;28;20527;-65
2022/12/02 08:31:24;;;;;;;56.50;28.17;;;2.60;99.90;;;;;;5056929;28;20982;-65
2022/12/02 08:33:51;;;;;;;66.80;35.83;;;2.70;99.90;;;;;;5056981;28;20445;-65
2022/12/02 08:36:21;;;;;;;70.77;37.23;;;2.70;99.90;;;;;;5058791;28;20470;-65
2022/12/02 08:38:48;;;;;;;55.17;27.13;;;2.70;99.90;;;;;;5058410;28;20937;-65
2022/12/02 08:41:16;;;;;;;53.47;26.03;;;2.70;99.90;;;;;;5058749;28;20871;-65
2022/12/02 08:43:43;;;;;;;51.60;26.53;;;2.80;99.90;;;;;;5058636;28;20485;-65
2022/12/02 08:46:11;;;;;;;53.97;28.43;;;2.80;99.90;;;;;;5058799;28;20462;-65
2022/12/02 08:48:38;;;;;;;53.23;29.00;;;2.70;99.90;;;;;;5050722;28;20449;-65
2022/12/02 08:51:06;;;;;;;47.60;24.53;;;2.70;99.90;;;;;;5039089;28;20438;-65
2022/12/02 08:53:34;;;;;;;43.67;24.10;;;2.70;99.90;;;;;;5043034;28;20802;-65
2022/12/02 08:56:01;;;;;;;52.30;26.67;;;2.70;99.90;;;;;;5039379;28;20473;-65
2022/12/02 08:58:29;;;;;;;52.57;27.80;;;2.70;99.90;;;;;;5038221;28;20466;-65
2022/12/02 09:00:56;;;;;;;51.50;26.03;;;2.70;99.90;;;;;;5037440;28;20463;-65
2022/12/02 09:03:23;;;;;;;46.77;26.20;;;2.70;99.90;;;;;;5037673;28;20470;-65
2022/12/02 09:05:50;;;;;;;42.87;25.30;;;2.60;99.90;;;;;;5037708;28;20770;-64
2022/12/02 09:08:17;;;;;;;53.20;25.60;;;2.60;99.90;;;;;;5037328;28;20433;-64
2022/12/02 09:10:46;;;;;;;44.47;24.50;;;2.60;99.90;;;;;;5037286;28;20481;-64
2022/12/02 09:13:13;;;;;;;45.43;24.57;;;2.70;99.90;;;;;;5037422;28;20444;-65
2022/12/02 09:15:40;;;;;;;49.30;24.33;;;2.70;99.90;;;;;;5037748;28;20491;-64
2022/12/02 09:18:07;;;;;;;44.80;25.33;;;2.70;99.90;;;;;;5037639;28;20458;-65
2022/12/02 09:20:34;;;;;;;41.40;25.63;;;2.70;99.90;;;;;;5037832;28;20856;-66
2022/12/02 09:23:01;;;;;;;42.70;24.13;;;2.80;99.90;;;;;;5037655;28;20468;-65
2022/12/02 09:25:29;;;;;;;47.00;24.60;;;2.70;99.90;;;;;;5039511;28;20763;-65
2022/12/02 09:27:57;;;;;;;46.10;23.90;;;2.70;99.90;;;;;;5042068;28;20443;-65
2022/12/02 09:30:24;;;;;;;43.00;26.17;;;2.70;99.90;;;;;;5057440;28;20474;-65
2022/12/02 09:32:51;;;;;;;42.33;24.70;;;2.70;99.90;;;;;;5058345;28;20561;-64
2022/12/02 09:35:19;;;;;;;42.03;22.53;;;2.70;99.90;;;;;;5057928;28;20454;-65
2022/12/02 09:37:46;;;;;;;38.83;23.83;;;2.70;99.90;;;;;;5058521;28;20437;-64
2022/12/02 09:40:14;;;;;;;43.73;22.80;;;2.60;99.90;;;;;;5052262;28;20911;-65
2022/12/02 09:42:41;;;;;;;39.53;22.37;;;2.60;99.90;;;;;;5056881;28;20462;-64
2022/12/02 09:45:10;;;;;;;32.93;21.03;;;2.60;99.90;;;;;;5057070;28;20754;-64
2022/12/02 09:47:38;;;;;;;36.10;22.13;;;2.70;99.90;;;;;;5056946;28;20444;-65
2022/12/02 09:50:06;;;;;;;38.47;22.13;;;2.70;99.90;;;;;;5057086;28;20458;-65
2022/12/02 09:52:34;;;;;;;37.10;22.43;;;2.80;99.90;;;;;;5057155;28;20458;-64
2022/12/02 09:55:02;;;;;;;35.80;22.60;;;2.70;99.90;;;;;;5056992;28;20736;-65
2022/12/02 09:57:31;;;;;;;39.00;22.70;;;2.70;99.90;;;;;;5058655;28;20498;-65
2022/12/02 09:59:59;;;;;;;41.30;23.77;;;2.70;99.90;;;;;;5057638;28;20997;-64
2022/12/02 10:02:36;;;;;;;40.70;22.87;;;2.70;99.90;;;;;;5058034;28;20674;-65
2022/12/02 10:05:07;;;;;;;35.93;23.47;;;2.70;99.90;;;;;;5057357;28;20461;-64
2022/12/02 10:07:34;;;;;;;36.07;22.17;;;2.70;99.90;;;;;;5058312;28;20448;-65
2022/12/02 10:10:01;;;;;;;39.60;22.30;;;2.70;99.90;;;;;;5058338;28;20454;-65
2022/12/02 10:12:29;;;;;;;41.47;23.60;;;2.70;99.90;;;;;;5058330;28;20556;-64
2022/12/02 10:14:58;;;;;;;35.17;21.23;;;2.70;99.90;;;;;;5054178;28;20457;-64
2022/12/02 10:17:25;;;;;;;36.53;22.37;;;2.60;99.90;;;;;;5054577;28;20433;-65
2022/12/02 10:19:53;;;;;;;31.77;21.03;;;2.70;99.90;;;;;;5058090;28;20490;-64
2022/12/02 10:22:22;;;;;;;34.50;23.37;;;2.70;99.90;;;;;;5058118;28;20493;-65
2022/12/02 10:24:50;;;;;;;38.20;24.53;;;2.70;99.90;;;;;;5057689;28;20462;-65
2022/12/02 10:27:28;;;;;;;36.40;23.20;;;2.60;99.90;;;;;;5054858;28;20465;-65
2022/12/02 10:30:13;;;;;;;36.07;22.43;;;2.70;99.90;;;;;;5057263;28;20457;-65
2022/12/02 10:32:40;;;;;;;37.87;22.30;;;2.60;99.90;;;;;;5057999;28;20458;-65
2022/12/02 10:35:10;;;;;;;33.97;21.50;;;2.70;99.90;;;;;;5054647;28;20445;-66
2022/12/02 10:37:38;;;;;;;32.77;20.57;;;2.80;99.90;;;;;;5060234;28;20461;-65
2022/12/02 10:40:15;;;;;;;36.13;21.77;;;2.70;99.90;;;;;;5060905;28;20464;-65
2022/12/02 10:42:43;;;;;;;32.63;21.93;;;2.70;99.90;;;;;;5055222;28;20437;-65
2022/12/02 10:45:18;;;;;;;38.87;22.40;;;2.80;99.90;;;;;;5053739;28;20756;-65
2022/12/02 10:47:46;;;;;;;37.60;21.90;;;2.80;99.90;;;;;;5054627;28;20516;-65
2022/12/02 10:50:21;;;;;;;35.13;22.20;;;2.80;99.90;;;;;;5053731;28;20879;-65
2022/12/02 10:52:50;;;;;;;33.20;21.17;;;2.80;99.90;;;;;;5054438;28;20472;-66
2022/12/02 10:55:19;;;;;;;35.33;22.70;;;2.90;99.90;;;;;;5055798;28;20474;-64
2022/12/02 10:57:47;;;;;;;35.20;21.73;;;2.90;99.90;;;;;;5056262;28;20879;-65
2022/12/02 11:00:17;;;;;;;39.47;23.30;;;2.80;99.90;;;;;;5057072;28;20764;-65
2022/12/02 11:02:46;;;;;;;35.70;22.80;;;2.70;99.90;;;;;;5055700;28;20490;-65
2022/12/02 11:05:17;;;;;;;42.57;24.57;;;2.80;99.90;;;;;;5055971;28;20443;-65
2022/12/02 11:07:57;;;;;;;39.87;25.27;;;2.80;99.90;;;;;;5055634;28;20481;-65
2022/12/02 11:10:27;;;;;;;40.43;24.70;;;2.70;99.90;;;;;;5048971;28;20451;-66
2022/12/02 11:13:04;;;;;;;41.47;24.80;;;2.80;99.90;;;;;;5035627;28;20477;-65
2022/12/02 11:15:43;;;;;;;34.50;23.33;;;2.80;99.90;;;;;;5035554;28;20470;-65
2022/12/02 11:18:32;;;;;;;35.60;23.20;;;2.90;99.90;;;;;;5037440;28;20470;-65
2022/12/02 11:21:33;;;;;;;36.17;25.13;;;2.90;99.90;;;;;;5036857;28;20459;-65
2022/12/02 11:24:36;;;;;;;38.13;24.83;;;2.90;99.90;;;;;;5051508;28;20493;-65
2022/12/02 11:27:09;;;;;;;41.50;24.10;;;3.00;99.90;;;;;;5056539;28;20508;-65
2022/12/02 11:29:38;;;;;;;37.37;23.50;;;3.00;99.90;;;;;;5056357;28;20469;-65
2022/12/02 11:32:17;;;;;;;37.90;23.03;;;3.00;99.90;;;;;;5055940;28;20436;-65
2022/12/02 11:34:47;;;;;;;36.20;23.87;;;3.10;99.90;;;;;;5056817;28;20458;-65
2022/12/02 11:37:42;;;;;;;37.17;24.27;;;3.10;99.90;;;;;;5057148;28;20448;-65
2022/12/02 11:40:55;;;;;;;36.33;23.70;;;3.10;99.90;;;;;;5057422;28;20513;-64
2022/12/02 11:44:09;;;;;;;36.43;22.20;;;3.10;99.90;;;;;;5001073;28;20446;-66
2022/12/02 11:46:44;;;;;;;38.87;24.33;;;3.20;99.90;;;;;;5033963;28;20454;-66
2022/12/02 11:49:28;;;;;;;34.10;22.17;;;3.30;99.90;;;;;;5036885;28;20700;-66
2022/12/02 11:52:13;;;;;;;36.53;24.07;;;3.50;99.90;;;;;;5037045;28;20463;-66
2022/12/02 11:54:41;;;;;;;34.00;22.73;;;3.40;99.90;;;;;;5036689;28;20463;-66
2022/12/02 11:57:19;;;;;;;34.73;23.73;;;3.40;99.90;;;;;;5036818;28;20470;-66
2022/12/02 11:59:48;;;;;;;34.80;23.40;;;3.20;99.90;;;;;;5052095;28;20457;-66
2022/12/02 12:02:17;;;;;;;36.80;24.23;;;3.30;99.90;;;;;;5060122;28;20490;-66
2022/12/02 12:04:45;;;;;;;32.63;22.23;;;3.40;99.90;;;;;;5060127;28;20473;-66
2022/12/02 12:07:13;;;;;;;39.13;22.97;;;3.30;99.90;;;;;;5059627;28;20441;-66
2022/12/02 12:09:40;;;;;;;40.70;24.20;;;3.40;99.90;;;;;;5059188;28;20485;-66
2022/12/02 12:12:14;;;;;;;36.37;22.70;;;3.40;99.90;;;;;;5059602;28;20750;-66
2022/12/02 12:14:59;;;;;;;34.90;24.40;;;3.30;99.90;;;;;;5057939;28;20479;-68
2022/12/02 12:17:46;;;;;;;39.17;23.50;;;3.40;99.90;;;;;;5053994;28;20451;-66
2022/12/02 12:20:42;;;;;;;36.27;23.00;;;3.30;99.90;;;;;;5044033;28;20507;-65
2022/12/02 12:23:32;;;;;;;36.23;23.27;;;3.40;99.90;;;;;;5038443;28;20494;-65
2022/12/02 12:25:59;;;;;;;33.20;22.60;;;3.40;99.90;;;;;;5038445;28;20466;-65
2022/12/02 12:28:28;;;;;;;39.23;23.57;;;3.30;99.90;;;;;;5041172;28;20911;-65
2022/12/02 12:30:56;;;;;;;38.17;23.00;;;3.20;99.90;;;;;;5041077;28;20741;-65
2022/12/02 12:33:23;;;;;;;35.53;23.10;;;3.20;99.90;;;;;;5044684;28;20466;-65
2022/12/02 12:35:53;;;;;;;33.33;22.47;;;3.20;99.90;;;;;;5043990;28;20434;-64
2022/12/02 12:38:21;;;;;;;35.70;22.23;;;3.30;99.90;;;;;;5054699;28;20437;-64
2022/12/02 12:40:48;;;;;;;41.07;23.20;;;3.20;99.90;;;;;;5043759;28;20897;-65
2022/12/02 12:43:15;;;;;;;35.33;23.87;;;3.20;99.90;;;;;;5039080;28;20434;-64
2022/12/02 12:45:43;;;;;;;34.73;23.60;;;3.20;99.90;;;;;;5038181;28;20513;-65
2022/12/02 12:48:11;;;;;;;35.90;23.67;;;3.20;99.90;;;;;;5038431;28;20923;-65
2022/12/02 12:50:38;;;;;;;34.40;21.73;;;3.30;99.90;;;;;;5038432;28;20463;-65
2022/12/02 12:53:05;;;;;;;38.73;24.13;;;3.30;99.90;;;;;;5038709;28;20456;-64